Time;durP1;ratioP1;P1;durP2;ratioP2;P2;SDS_P1;SDS_P2;PMS_P1;PMS_P2;Temp;Humidity;BMP_temperature;BMP_pressure;BME280_temperature;BME280_humidity;BME280_pressure;Samples;Min_cycle;Max_cycle;Signal;HPM_P1;HPM_P2
2021/05/18 00:02:01;;;;;;;16.03;14.53;;;;;;;;;;5027386;28;20464;-68
2021/05/18 00:04:28;;;;;;;14.60;13.10;;;;;;;;;;5027422;28;20452;-68
2021/05/18 00:06:56;;;;;;;14.13;12.63;;;;;;;;;;5014434;28;20476;-68
2021/05/18 00:12:08;;;;;;;15.63;14.23;;;;;;;;;;5029331;28;20425;-68
2021/05/18 00:14:39;;;;;;;15.70;14.30;;;;;;;;;;5014879;28;20470;-68
2021/05/18 00:17:08;;;;;;;15.90;14.30;;;;;;;;;;5022292;28;20457;-68
2021/05/18 00:19:39;;;;;;;17.27;15.57;;;;;;;;;;5015252;28;20524;-67
2021/05/18 00:22:12;;;;;;;17.67;16.07;;;;;;;;;;5014011;28;20506;-68
2021/05/18 00:24:39;;;;;;;16.47;14.97;;;;;;;;;;5017652;28;20461;-68
2021/05/18 00:27:10;;;;;;;16.80;15.30;;;;;;;;;;5016996;28;20454;-68
2021/05/18 00:29:42;;;;;;;16.03;14.53;;;;;;;;;;5017979;28;20468;-68
2021/05/18 00:32:09;;;;;;;17.93;16.13;;;;;;;;;;5027799;28;20540;-68
2021/05/18 00:34:38;;;;;;;18.20;16.40;;;;;;;;;;5019711;28;20496;-68
2021/05/18 00:37:05;;;;;;;18.23;16.33;;;;;;;;;;5029219;28;20453;-69
2021/05/18 00:39:32;;;;;;;18.73;16.90;;;;;;;;;;5040089;28;20489;-68
2021/05/18 00:41:59;;;;;;;17.93;16.07;;;;;;;;;;5034637;28;20466;-68
2021/05/18 00:44:27;;;;;;;17.63;15.93;;;;;;;;;;5046833;28;20457;-68
2021/05/18 00:46:56;;;;;;;18.50;16.60;;;;;;;;;;5044894;28;20476;-67
2021/05/18 00:49:24;;;;;;;17.73;16.10;;;;;;;;;;5031408;28;20465;-67
2021/05/18 00:51:51;;;;;;;18.03;16.30;;;;;;;;;;5019594;28;20462;-69
2021/05/18 00:54:21;;;;;;;19.40;17.50;;;;;;;;;;5012847;28;20548;-68
2021/05/18 00:59:33;;;;;;;19.40;17.50;;;;;;;;;;5015447;28;20496;-68
2021/05/18 01:02:03;;;;;;;19.07;17.27;;;;;;;;;;4997673;28;20447;-67
2021/05/18 01:04:31;;;;;;;17.70;15.77;;;;;;;;;;4997592;28;20473;-68
2021/05/18 01:07:02;;;;;;;16.53;14.93;;;;;;;;;;5018149;28;20458;-68
2021/05/18 01:09:31;;;;;;;15.37;13.13;;;;;;;;;;5032515;28;20597;-68
2021/05/18 01:12:00;;;;;;;15.97;13.20;;;;;;;;;;5035127;28;20542;-68
2021/05/18 01:14:27;;;;;;;15.50;12.47;;;;;;;;;;5033490;28;20523;-68
2021/05/18 01:16:54;;;;;;;13.90;12.47;;;;;;;;;;5032074;28;20461;-68
2021/05/18 01:19:24;;;;;;;14.80;12.00;;;;;;;;;;5053801;28;20507;-68
2021/05/18 01:21:57;;;;;;;11.73;10.60;;;;;;;;;;5039574;28;20711;-68
2021/05/18 01:24:24;;;;;;;12.13;10.83;;;;;;;;;;5046495;28;20540;-68
2021/05/18 01:26:51;;;;;;;12.83;11.43;;;;;;;;;;5035264;28;20492;-68
2021/05/18 01:29:23;;;;;;;11.30;10.30;;;;;;;;;;5042841;28;20483;-68
2021/05/18 01:31:52;;;;;;;13.90;11.60;;;;;;;;;;5032438;28;20453;-67
2021/05/18 01:34:19;;;;;;;15.77;11.50;;;;;;;;;;5029656;28;20465;-68
2021/05/18 01:36:47;;;;;;;15.73;11.83;;;;;;;;;;5020318;28;20464;-67
2021/05/18 01:39:46;;;;;;;12.80;11.53;;;;;;;;;;5001492;28;20497;-68
2021/05/18 01:44:58;;;;;;;13.80;12.37;;;;;;;;;;5008919;28;20478;-70
2021/05/18 01:47:25;;;;;;;15.20;12.40;;;;;;;;;;5022743;28;20457;-71
2021/05/18 01:49:54;;;;;;;15.13;12.20;;;;;;;;;;5013008;28;20465;-68
2021/05/18 01:52:21;;;;;;;14.53;12.07;;;;;;;;;;5011584;28;20504;-69
2021/05/18 01:54:51;;;;;;;14.40;11.90;;;;;;;;;;5022603;28;20495;-68
2021/05/18 01:57:20;;;;;;;16.80;11.60;;;;;;;;;;5016253;28;20489;-69
2021/05/18 01:59:48;;;;;;;16.77;12.00;;;;;;;;;;5004201;28;20575;-69
2021/05/18 02:02:16;;;;;;;12.83;11.50;;;;;;;;;;5014024;28;20821;-69
2021/05/18 02:04:47;;;;;;;12.43;11.43;;;;;;;;;;5018799;28;20457;-68
2021/05/18 02:07:16;;;;;;;12.00;10.80;;;;;;;;;;5011142;28;20531;-69
2021/05/18 02:09:44;;;;;;;11.83;10.67;;;;;;;;;;5009837;28;20508;-69
2021/05/18 02:12:13;;;;;;;12.13;10.97;;;;;;;;;;5012810;28;20450;-69
2021/05/18 02:14:42;;;;;;;12.50;11.10;;;;;;;;;;5019400;28;20477;-69
2021/05/18 02:17:16;;;;;;;14.23;10.40;;;;;;;;;;5021075;28;20820;-69
2021/05/18 02:19:53;;;;;;;12.93;11.07;;;;;;;;;;5032744;28;21014;-68
2021/05/18 02:25:03;;;;;;;13.47;11.37;;;;;;;;;;4968655;28;20857;-69
2021/05/18 02:27:31;;;;;;;13.97;11.50;;;;;;;;;;5018723;28;20465;-67
2021/05/18 02:30:00;;;;;;;13.77;12.17;;;;;;;;;;5034363;28;20463;-67
2021/05/18 02:32:27;;;;;;;13.77;12.23;;;;;;;;;;5009515;28;20465;-68
2021/05/18 02:34:54;;;;;;;12.83;11.27;;;;;;;;;;5028696;28;20456;-68
2021/05/18 02:37:22;;;;;;;13.97;12.50;;;;;;;;;;5022512;28;20515;-68
2021/05/18 02:39:49;;;;;;;13.17;11.87;;;;;;;;;;5013745;28;20485;-69
2021/05/18 02:42:19;;;;;;;13.93;12.33;;;;;;;;;;5013442;28;20968;-68
2021/05/18 02:44:56;;;;;;;12.50;11.17;;;;;;;;;;5006364;28;20553;-68
2021/05/18 02:50:17;;;;;;;13.20;12.00;;;;;;;;;;5025693;28;20488;-69
2021/05/18 02:52:46;;;;;;;13.90;12.17;;;;;;;;;;5015122;28;20489;-69
2021/05/18 02:55:20;;;;;;;11.33;10.20;;;;;;;;;;5031434;28;20457;-69
2021/05/18 02:57:50;;;;;;;13.47;12.07;;;;;;;;;;5023068;28;20469;-69
2021/05/18 03:00:19;;;;;;;12.77;11.47;;;;;;;;;;5028212;28;20493;-69
2021/05/18 03:02:48;;;;;;;12.83;11.50;;;;;;;;;;5017548;28;20667;-70
2021/05/18 03:05:19;;;;;;;12.50;11.20;;;;;;;;;;5017325;28;20527;-69
2021/05/18 03:07:46;;;;;;;14.17;11.63;;;;;;;;;;5010440;28;20468;-69
2021/05/18 03:10:14;;;;;;;12.77;11.47;;;;;;;;;;5034388;28;20457;-70
2021/05/18 03:12:46;;;;;;;13.70;10.40;;;;;;;;;;5019729;28;20833;-69
2021/05/18 03:15:14;;;;;;;11.70;10.10;;;;;;;;;;5014235;28;20453;-68
2021/05/18 03:17:45;;;;;;;9.97;9.07;;;;;;;;;;5014316;28;20492;-68
2021/05/18 03:20:17;;;;;;;9.90;8.90;;;;;;;;;;5012643;28;20485;-70
2021/05/18 03:22:44;;;;;;;13.13;9.13;;;;;;;;;;5019744;28;20489;-70
2021/05/18 03:25:12;;;;;;;10.40;9.30;;;;;;;;;;5011132;28;20449;-70
2021/05/18 03:27:39;;;;;;;14.83;8.80;;;;;;;;;;5021526;28;20469;-67
2021/05/18 03:30:26;;;;;;;8.50;7.63;;;;;;;;;;5019302;28;20481;-71
2021/05/18 03:35:41;;;;;;;11.40;9.13;;;;;;;;;;5031518;28;20423;-71
2021/05/18 03:38:16;;;;;;;8.57;7.70;;;;;;;;;;5014748;28;20473;-70
2021/05/18 03:40:49;;;;;;;9.50;7.87;;;;;;;;;;5011494;28;21017;-68
2021/05/18 03:43:33;;;;;;;10.90;7.27;;;;;;;;;;5012573;28;20476;-68
2021/05/18 03:52:17;;;;;;;8.70;6.80;;;;;;;;;;5012101;28;20436;-68
2021/05/18 03:54:35;;;;;;;8.50;7.07;;;;;;;;;;5008432;28;20461;-68
2021/05/18 04:02:58;;;;;;;10.60;7.47;;;;;;;;;;5008917;28;21079;-68
2021/05/18 04:19:33;;;;;;;9.80;8.83;;;;;;;;;;4964361;28;20844;-76
2021/05/18 04:39:18;;;;;;;10.17;9.13;;;;;;;;;;4973025;28;20850;-77
2021/05/18 04:53:12;;;;;;;8.97;8.20;;;;;;;;;;4997742;28;20805;-69
2021/05/18 05:01:13;;;;;;;8.90;8.13;;;;;;;;;;5045823;22;21128;-68
2021/05/18 05:03:56;;;;;;;8.57;7.77;;;;;;;;;;5028407;28;20590;-67
2021/05/18 05:06:29;;;;;;;8.00;7.40;;;;;;;;;;5032827;28;20447;-68
2021/05/18 05:09:02;;;;;;;8.17;7.40;;;;;;;;;;5048871;28;20471;-68
2021/05/18 05:14:20;;;;;;;8.87;8.17;;;;;;;;;;4971156;28;20454;-67
2021/05/18 05:16:47;;;;;;;8.90;8.10;;;;;;;;;;5012363;28;20472;-68
2021/05/18 05:19:13;;;;;;;10.03;9.13;;;;;;;;;;5028157;28;20492;-66
2021/05/18 05:21:41;;;;;;;10.13;8.60;;;;;;;;;;5030661;28;20903;-66
2021/05/18 05:24:08;;;;;;;11.63;9.03;;;;;;;;;;5014243;28;20468;-65
2021/05/18 05:26:36;;;;;;;9.20;8.20;;;;;;;;;;5012077;28;20887;-65
2021/05/18 05:29:03;;;;;;;9.43;8.63;;;;;;;;;;5013651;28;20852;-65
2021/05/18 05:31:29;;;;;;;6.13;5.60;;;;;;;;;;5016362;28;21012;-66
2021/05/18 05:33:56;;;;;;;6.57;4.30;;;;;;;;;;5013112;28;20539;-64
2021/05/18 05:36:23;;;;;;;8.17;4.00;;;;;;;;;;5018577;28;20497;-64
2021/05/18 05:38:50;;;;;;;8.27;4.30;;;;;;;;;;5013705;28;20876;-64
2021/05/18 05:41:16;;;;;;;5.50;4.97;;;;;;;;;;5025352;28;20485;-64
2021/05/18 05:43:44;;;;;;;5.67;4.97;;;;;;;;;;5012298;28;20897;-64
2021/05/18 05:46:10;;;;;;;8.07;5.20;;;;;;;;;;5017011;28;20537;-65
2021/05/18 05:48:37;;;;;;;8.13;5.40;;;;;;;;;;5025137;28;20457;-65
2021/05/18 05:51:04;;;;;;;4.77;4.33;;;;;;;;;;5012849;28;20484;-65
2021/05/18 05:53:31;;;;;;;6.03;4.40;;;;;;;;;;5026531;28;20956;-65
2021/05/18 05:55:58;;;;;;;4.57;4.27;;;;;;;;;;5011617;28;20819;-65
2021/05/18 05:58:24;;;;;;;4.50;3.73;;;;;;;;;;5016766;28;20465;-65
2021/05/18 06:00:52;;;;;;;6.00;3.50;;;;;;;;;;5014630;28;20575;-65
2021/05/18 06:03:18;;;;;;;4.07;3.13;;;;;;;;;;5009764;28;20550;-65
2021/05/18 06:05:45;;;;;;;7.50;3.00;;;;;;;;;;5021029;28;20526;-65
2021/05/18 06:08:12;;;;;;;5.90;3.30;;;;;;;;;;5029624;28;20495;-65
2021/05/18 06:10:41;;;;;;;6.70;3.40;;;;;;;;;;5012046;28;20457;-65
2021/05/18 06:43:34;;;;;;;5.07;3.13;;;;;;;;;;5005876;28;20472;-65
2021/05/18 06:48:48;;;;;;;24.93;8.20;;;;;;;;;;5017913;28;20428;-65
2021/05/18 06:51:15;;;;;;;8.10;3.67;;;;;;;;;;5012454;28;20889;-66
2021/05/18 06:53:42;;;;;;;3.97;2.30;;;;;;;;;;5011150;28;20817;-66
2021/05/18 06:56:09;;;;;;;8.03;3.30;;;;;;;;;;5011766;28;20445;-66
2021/05/18 07:01:21;;;;;;;8.13;7.30;;;;;;;;;;4992629;28;20827;-65
2021/05/18 07:03:50;;;;;;;9.70;7.20;;;;;;;;;;5010076;28;20457;-65
2021/05/18 07:06:39;;;;;;;7.70;6.90;;;;;;;;;;5012131;28;20969;-67
2021/05/18 07:09:06;;;;;;;8.10;6.60;;;;;;;;;;5012132;28;20446;-70
2021/05/18 07:11:33;;;;;;;7.77;6.97;;;;;;;;;;5011999;28;20519;-69
2021/05/18 07:14:00;;;;;;;8.80;8.00;;;;;;;;;;5011615;28;20600;-70
2021/05/18 07:16:27;;;;;;;9.27;7.90;;;;;;;;;;5012065;28;20511;-69
2021/05/18 07:18:53;;;;;;;9.10;8.20;;;;;;;;;;5012047;28;21036;-70
2021/05/18 07:21:21;;;;;;;10.40;9.10;;;;;;;;;;5011527;28;20487;-69
2021/05/18 07:23:48;;;;;;;9.60;8.83;;;;;;;;;;5011606;28;20496;-69
2021/05/18 07:26:15;;;;;;;9.80;8.97;;;;;;;;;;5011744;28;20481;-69
2021/05/18 07:28:41;;;;;;;8.60;7.90;;;;;;;;;;5011143;28;20829;-69
2021/05/18 07:31:08;;;;;;;9.27;8.47;;;;;;;;;;5010987;28;20466;-70
2021/05/18 07:33:35;;;;;;;9.40;8.50;;;;;;;;;;5009846;28;20460;-72
2021/05/18 07:36:07;;;;;;;9.67;8.87;;;;;;;;;;5012764;28;20446;-63
2021/05/18 07:38:35;;;;;;;8.20;7.50;;;;;;;;;;5014061;28;20937;-67
2021/05/18 07:41:01;;;;;;;9.27;8.37;;;;;;;;;;5013480;28;20499;-70
2021/05/18 07:43:28;;;;;;;8.87;7.97;;;;;;;;;;5013670;28;20458;-71
2021/05/18 07:45:56;;;;;;;8.50;7.70;;;;;;;;;;5013952;28;21819;-69
2021/05/18 07:48:28;;;;;;;8.20;7.43;;;;;;;;;;5013661;28;20480;-70
2021/05/18 07:51:12;;;;;;;8.67;7.97;;;;;;;;;;5013568;28;20991;-70
2021/05/18 07:59:20;;;;;;;8.60;7.80;;;;;;;;;;5014030;28;20491;-70
2021/05/18 08:07:16;;;;;;;6.53;5.93;;;;;;;;;;5013497;28;20493;-70
2021/05/18 08:09:46;;;;;;;7.67;6.90;;;;;;;;;;5013380;28;20797;-70
2021/05/18 08:12:13;;;;;;;7.63;6.93;;;;;;;;;;5012680;28;20858;-70
2021/05/18 08:14:43;;;;;;;7.10;6.40;;;;;;;;;;4996781;28;20458;-70
2021/05/18 08:17:23;;;;;;;7.60;6.87;;;;;;;;;;5013689;28;20442;-70
2021/05/18 08:20:21;;;;;;;7.27;6.67;;;;;;;;;;5012736;28;20485;-71
2021/05/18 10:34:56;;;;;;;4.20;3.80;;;;;;;;;;4992054;28;20509;-68
2021/05/18 10:37:33;;;;;;;4.80;3.80;;;;;;;;;;5011378;28;20449;-67
2021/05/18 10:40:18;;;;;;;7.10;2.50;;;;;;;;;;4992494;28;20485;-68
2021/05/18 10:43:00;;;;;;;4.33;3.07;;;;;;;;;;5001739;28;21004;-65
2021/05/18 10:45:27;;;;;;;3.20;2.60;;;;;;;;;;5010024;28;20446;-66
2021/05/18 10:47:57;;;;;;;5.47;2.30;;;;;;;;;;5010651;28;20460;-66
2021/05/18 10:50:40;;;;;;;5.50;2.70;;;;;;;;;;5011497;28;20445;-66
2021/05/18 10:53:20;;;;;;;3.40;2.67;;;;;;;;;;5010850;28;20445;-66
2021/05/18 10:56:01;;;;;;;4.03;2.40;;;;;;;;;;5011416;28;20576;-66
2021/05/18 10:58:28;;;;;;;7.60;1.90;;;;;;;;;;5011105;28;20458;-66
2021/05/18 11:00:56;;;;;;;6.00;2.63;;;;;;;;;;5010493;28;20501;-66
2021/05/18 11:06:04;;;;;;;3.47;2.17;;;;;;;;;;5001388;28;20471;-71
2021/05/18 11:08:31;;;;;;;8.80;1.90;;;;;;;;;;4999614;28;20555;-71
2021/05/18 11:10:57;;;;;;;5.07;2.97;;;;;;;;;;4999908;28;20805;-70
2021/05/18 11:13:24;;;;;;;2.70;1.93;;;;;;;;;;5015331;28;20973;-72
2021/05/18 11:15:50;;;;;;;3.80;2.47;;;;;;;;;;5015354;28;20529;-71
2021/05/18 11:18:18;;;;;;;3.20;2.90;;;;;;;;;;5014638;28;20949;-71
2021/05/18 11:20:57;;;;;;;3.40;2.57;;;;;;;;;;5014932;28;20497;-71
2021/05/18 11:23:23;;;;;;;3.00;2.63;;;;;;;;;;5015036;28;20476;-71
2021/05/18 11:25:53;;;;;;;4.10;2.80;;;;;;;;;;5015662;28;20445;-71
2021/05/18 11:28:21;;;;;;;7.60;2.57;;;;;;;;;;5015488;28;20457;-71
2021/05/18 11:30:48;;;;;;;4.50;2.90;;;;;;;;;;5015417;28;20879;-71
2021/05/18 11:33:16;;;;;;;3.60;2.60;;;;;;;;;;5015380;28;20548;-71
2021/05/18 11:35:43;;;;;;;4.10;2.47;;;;;;;;;;5014900;28;20906;-71
2021/05/18 11:38:14;;;;;;;5.80;2.60;;;;;;;;;;5014126;28;20465;-71
2021/05/18 11:40:42;;;;;;;4.30;2.77;;;;;;;;;;5024086;28;20503;-71
2021/05/18 11:43:16;;;;;;;6.90;2.70;;;;;;;;;;5026352;28;20758;-72
2021/05/18 11:45:42;;;;;;;5.07;3.40;;;;;;;;;;5023870;28;20480;-71
2021/05/18 11:48:13;;;;;;;4.27;2.50;;;;;;;;;;5024702;28;20450;-71
2021/05/18 11:50:40;;;;;;;5.90;5.40;;;;;;;;;;5014833;28;20449;-72
2021/05/18 11:53:07;;;;;;;6.40;5.77;;;;;;;;;;5015221;28;20481;-71
2021/05/18 11:55:35;;;;;;;6.20;4.93;;;;;;;;;;5013945;28;20843;-69
2021/05/18 11:58:02;;;;;;;7.40;4.57;;;;;;;;;;5014804;28;20451;-70
2021/05/18 12:00:30;;;;;;;5.30;2.50;;;;;;;;;;5015475;28;20487;-69
2021/05/18 12:03:01;;;;;;;4.20;3.80;;;;;;;;;;5014822;28;20453;-71
2021/05/18 12:05:28;;;;;;;5.80;2.90;;;;;;;;;;5003989;28;20477;-70
2021/05/18 12:07:54;;;;;;;5.13;2.27;;;;;;;;;;5014741;28;20456;-69
2021/05/18 12:10:35;;;;;;;4.27;2.50;;;;;;;;;;5014802;28;20483;-69
2021/05/18 12:13:05;;;;;;;3.10;2.33;;;;;;;;;;5013489;28;20476;-70
2021/05/18 12:15:32;;;;;;;4.67;2.30;;;;;;;;;;5014817;28;20498;-70
2021/05/18 12:17:59;;;;;;;3.50;2.60;;;;;;;;;;5028162;28;20800;-70
2021/05/18 12:20:26;;;;;;;4.63;4.00;;;;;;;;;;5025134;28;20488;-70
2021/05/18 12:22:53;;;;;;;3.37;2.43;;;;;;;;;;5034019;28;20518;-69
2021/05/18 12:25:30;;;;;;;3.47;2.40;;;;;;;;;;5024754;28;20531;-69
2021/05/18 12:27:57;;;;;;;4.50;3.17;;;;;;;;;;5015255;28;20515;-70
2021/05/18 12:30:37;;;;;;;5.00;2.70;;;;;;;;;;5014912;28;20453;-72
2021/05/18 12:33:03;;;;;;;4.70;1.83;;;;;;;;;;5016105;28;20450;-70
2021/05/18 12:35:30;;;;;;;2.93;2.53;;;;;;;;;;5015479;28;20478;-70
2021/05/18 12:37:57;;;;;;;4.60;2.20;;;;;;;;;;5014783;28;20813;-71
2021/05/18 12:40:31;;;;;;;2.73;2.53;;;;;;;;;;5014900;28;20488;-70
2021/05/18 12:43:09;;;;;;;4.97;2.23;;;;;;;;;;5015287;28;20531;-70
2021/05/18 12:45:37;;;;;;;3.27;1.93;;;;;;;;;;5006297;28;20492;-70
2021/05/18 12:48:04;;;;;;;4.07;2.30;;;;;;;;;;5015236;28;20453;-70
2021/05/18 12:50:38;;;;;;;3.80;2.00;;;;;;;;;;5014378;28;20956;-71
2021/05/18 12:53:06;;;;;;;3.60;2.50;;;;;;;;;;5014771;28;20450;-71
2021/05/18 12:55:33;;;;;;;3.50;2.10;;;;;;;;;;5006933;28;20482;-71
2021/05/18 12:58:01;;;;;;;3.70;2.40;;;;;;;;;;5014494;28;20806;-71
2021/05/18 13:00:30;;;;;;;3.40;1.90;;;;;;;;;;5014221;28;20493;-71
2021/05/18 13:03:08;;;;;;;2.43;2.23;;;;;;;;;;5014560;28;20450;-71
2021/05/18 13:05:34;;;;;;;3.20;2.07;;;;;;;;;;5013732;28;20496;-71
2021/05/18 13:08:06;;;;;;;3.53;2.10;;;;;;;;;;5014735;28;20460;-71
2021/05/18 13:10:49;;;;;;;2.30;2.10;;;;;;;;;;5013831;28;20461;-71
2021/05/18 13:13:16;;;;;;;5.03;2.27;;;;;;;;;;5014570;28;20453;-71
2021/05/18 13:15:44;;;;;;;2.40;2.07;;;;;;;;;;5014115;28;20915;-72
2021/05/18 13:18:12;;;;;;;4.17;2.43;;;;;;;;;;5007384;28;20561;-71
2021/05/18 13:20:44;;;;;;;2.70;2.30;;;;;;;;;;5008086;28;20492;-72
2021/05/18 13:23:17;;;;;;;3.00;2.50;;;;;;;;;;5013992;28;20442;-71
2021/05/18 13:28:32;;;;;;;2.43;1.90;;;;;;;;;;4998962;28;20964;-71
2021/05/18 13:31:02;;;;;;;2.80;2.50;;;;;;;;;;5014220;28;20959;-71
2021/05/18 13:33:31;;;;;;;3.00;2.13;;;;;;;;;;5013068;28;20929;-71
2021/05/18 13:36:00;;;;;;;4.37;2.57;;;;;;;;;;5013793;28;20492;-71
2021/05/18 13:38:33;;;;;;;4.10;2.50;;;;;;;;;;5013497;28;20489;-70
2021/05/18 13:41:00;;;;;;;2.93;2.50;;;;;;;;;;5013876;28;20485;-71
2021/05/18 13:43:32;;;;;;;2.27;2.07;;;;;;;;;;5013610;28;20449;-71
2021/05/18 13:46:00;;;;;;;3.30;2.63;;;;;;;;;;5013066;28;20456;-70
2021/05/18 13:48:27;;;;;;;2.67;2.17;;;;;;;;;;5013955;28;20519;-71
2021/05/18 13:50:54;;;;;;;2.33;2.13;;;;;;;;;;5013354;28;20450;-71
2021/05/18 13:53:22;;;;;;;2.80;2.00;;;;;;;;;;5013274;28;20481;-71
2021/05/18 13:55:51;;;;;;;2.90;1.90;;;;;;;;;;5013831;28;20474;-71
2021/05/18 13:58:18;;;;;;;3.00;2.20;;;;;;;;;;5013992;28;20492;-70
2021/05/18 14:00:45;;;;;;;2.80;1.97;;;;;;;;;;5011977;28;20478;-71
2021/05/18 14:03:14;;;;;;;2.30;2.10;;;;;;;;;;5015240;28;20477;-74
2021/05/18 14:05:41;;;;;;;2.20;2.00;;;;;;;;;;5016656;28;20480;-71
2021/05/18 14:08:25;;;;;;;2.77;2.10;;;;;;;;;;5014339;28;20453;-71
2021/05/18 14:10:56;;;;;;;2.30;1.70;;;;;;;;;;5014931;28;20453;-71
2021/05/18 14:13:24;;;;;;;2.10;1.90;;;;;;;;;;5013786;28;20520;-71
2021/05/18 14:15:51;;;;;;;2.30;1.97;;;;;;;;;;5013820;28;20473;-74
2021/05/18 14:18:19;;;;;;;3.43;2.23;;;;;;;;;;5013372;28;20445;-71
2021/05/18 14:20:47;;;;;;;2.77;2.50;;;;;;;;;;5013531;28;20647;-71
2021/05/18 14:23:16;;;;;;;2.20;1.47;;;;;;;;;;5013715;28;20449;-71
2021/05/18 14:25:43;;;;;;;1.93;1.73;;;;;;;;;;5013215;28;20501;-71
2021/05/18 14:28:11;;;;;;;2.03;1.57;;;;;;;;;;5013617;28;20453;-71
2021/05/18 14:30:38;;;;;;;1.70;1.53;;;;;;;;;;5014545;28;20450;-71
2021/05/18 14:33:08;;;;;;;1.40;1.30;;;;;;;;;;5014465;28;20964;-71
2021/05/18 14:35:39;;;;;;;1.90;1.60;;;;;;;;;;5019042;28;20477;-72
2021/05/18 14:38:09;;;;;;;1.53;1.37;;;;;;;;;;5030587;28;20477;-71
2021/05/18 14:46:18;;;;;;;2.03;1.60;;;;;;;;;;5029737;28;20456;-72
2021/05/18 14:57:09;;;;;;;2.00;1.80;;;;;;;;;;4980112;28;20430;-71
2021/05/18 14:59:38;;;;;;;3.13;2.00;;;;;;;;;;5014352;28;20492;-71
2021/05/18 15:02:06;;;;;;;2.00;1.47;;;;;;;;;;5014617;28;20450;-71
2021/05/18 15:04:34;;;;;;;2.37;1.80;;;;;;;;;;5013826;28;20489;-71
2021/05/18 15:07:07;;;;;;;2.00;1.80;;;;;;;;;;5013983;28;20521;-70
2021/05/18 15:09:38;;;;;;;2.07;1.87;;;;;;;;;;5014297;28;20446;-71
2021/05/18 15:12:06;;;;;;;1.90;1.80;;;;;;;;;;5015103;28;20454;-70
2021/05/18 15:14:37;;;;;;;1.73;1.63;;;;;;;;;;5013814;28;20483;-70
2021/05/18 15:17:04;;;;;;;2.00;1.50;;;;;;;;;;5026579;28;20481;-69
2021/05/18 15:19:34;;;;;;;1.90;1.80;;;;;;;;;;5031951;28;20529;-68
2021/05/18 15:22:04;;;;;;;2.30;2.10;;;;;;;;;;5034388;28;20484;-69
2021/05/18 15:24:37;;;;;;;1.93;1.83;;;;;;;;;;5033840;28;20533;-69
2021/05/18 15:27:05;;;;;;;2.73;2.10;;;;;;;;;;5014331;28;20445;-68
2021/05/18 15:29:32;;;;;;;3.00;2.13;;;;;;;;;;5014452;28;20481;-69
2021/05/18 15:32:01;;;;;;;2.30;2.10;;;;;;;;;;5014550;28;20450;-69
2021/05/18 15:34:28;;;;;;;2.83;2.63;;;;;;;;;;5013889;28;20569;-69
2021/05/18 15:36:56;;;;;;;2.30;2.10;;;;;;;;;;5003118;28;20454;-68
2021/05/18 15:39:25;;;;;;;2.20;2.10;;;;;;;;;;4993237;28;20446;-67
2021/05/18 15:41:52;;;;;;;2.60;2.40;;;;;;;;;;4992016;28;20482;-67
2021/05/18 15:44:33;;;;;;;4.17;2.50;;;;;;;;;;4992892;28;20474;-68
2021/05/18 15:47:12;;;;;;;2.77;2.57;;;;;;;;;;4992175;28;20950;-68
2021/05/18 15:49:39;;;;;;;3.37;3.00;;;;;;;;;;4991780;28;20529;-68
2021/05/18 15:52:07;;;;;;;3.27;2.43;;;;;;;;;;4991928;28;20442;-67
2021/05/18 15:54:35;;;;;;;3.07;2.77;;;;;;;;;;4992099;28;20513;-67
2021/05/18 15:57:02;;;;;;;3.57;3.27;;;;;;;;;;4994718;28;20501;-67
2021/05/18 15:59:30;;;;;;;3.73;3.43;;;;;;;;;;4995422;28;20581;-67
2021/05/18 16:01:57;;;;;;;3.70;3.40;;;;;;;;;;5012594;28;20485;-67
2021/05/18 16:04:25;;;;;;;3.20;2.90;;;;;;;;;;5014763;28;20477;-67
2021/05/18 16:06:52;;;;;;;3.63;3.33;;;;;;;;;;5014444;28;20541;-67
2021/05/18 16:09:20;;;;;;;3.67;3.37;;;;;;;;;;5014999;28;20537;-68
2021/05/18 16:11:50;;;;;;;4.00;3.70;;;;;;;;;;5014637;28;20450;-67
2021/05/18 16:14:17;;;;;;;3.90;3.60;;;;;;;;;;5014515;28;20512;-67
2021/05/18 16:16:47;;;;;;;4.10;3.70;;;;;;;;;;5014214;28;20481;-67
2021/05/18 16:19:14;;;;;;;3.90;3.60;;;;;;;;;;5014345;28;20460;-68
2021/05/18 16:21:41;;;;;;;4.57;4.17;;;;;;;;;;5014215;28;20481;-65
2021/05/18 16:24:08;;;;;;;5.20;4.80;;;;;;;;;;5014649;28;20476;-66
2021/05/18 16:26:45;;;;;;;17.33;5.23;;;;;;;;;;5013027;28;20457;-66
2021/05/18 16:31:58;;;;;;;4.70;4.30;;;;;;;;;;5028249;28;20795;-65
2021/05/18 16:34:27;;;;;;;4.17;3.87;;;;;;;;;;5033016;28;20499;-65
2021/05/18 16:36:54;;;;;;;4.33;4.03;;;;;;;;;;5021456;28;20866;-66
2021/05/18 16:39:23;;;;;;;4.87;4.33;;;;;;;;;;5014144;28;20473;-68
2021/05/18 16:41:52;;;;;;;4.90;4.50;;;;;;;;;;5014079;28;20484;-69
2021/05/18 16:44:23;;;;;;;5.47;5.07;;;;;;;;;;5013367;28;21046;-68
2021/05/18 16:46:51;;;;;;;5.13;4.73;;;;;;;;;;5008476;28;20453;-67
2021/05/18 16:49:18;;;;;;;5.40;4.97;;;;;;;;;;5000077;28;20460;-67
2021/05/18 16:51:47;;;;;;;5.77;5.37;;;;;;;;;;5012677;28;20496;-67
2021/05/18 16:54:16;;;;;;;5.13;4.70;;;;;;;;;;5009028;28;20471;-67
2021/05/18 16:56:43;;;;;;;5.47;4.97;;;;;;;;;;5011691;28;20461;-69
2021/05/18 16:59:14;;;;;;;4.57;4.27;;;;;;;;;;5012123;28;20476;-68
2021/05/18 17:01:42;;;;;;;4.97;4.57;;;;;;;;;;5008620;28;20470;-68
2021/05/18 17:04:09;;;;;;;5.30;4.90;;;;;;;;;;5013088;28;20478;-68
2021/05/18 17:06:35;;;;;;;5.30;4.90;;;;;;;;;;5020570;28;20506;-68
2021/05/18 17:09:02;;;;;;;6.13;5.63;;;;;;;;;;5018635;28;20492;-68
2021/05/18 17:11:29;;;;;;;5.80;5.30;;;;;;;;;;5013550;28;20807;-68
2021/05/18 17:13:55;;;;;;;5.63;5.23;;;;;;;;;;5017209;28;20482;-68
2021/05/18 17:16:22;;;;;;;5.53;5.13;;;;;;;;;;5053480;23;20590;-65
2021/05/18 17:18:49;;;;;;;6.30;5.90;;;;;;;;;;5048822;28;20446;-64
2021/05/18 17:21:16;;;;;;;6.40;5.80;;;;;;;;;;5050539;28;20480;-65
2021/05/18 17:23:43;;;;;;;6.57;6.17;;;;;;;;;;5052635;28;20538;-64
2021/05/18 17:26:11;;;;;;;6.80;6.20;;;;;;;;;;5036924;28;20495;-66
2021/05/18 17:28:39;;;;;;;6.67;6.03;;;;;;;;;;5032916;28;20455;-65
2021/05/18 17:31:08;;;;;;;6.50;6.00;;;;;;;;;;5032180;28;20457;-68
2021/05/18 17:33:34;;;;;;;6.10;5.60;;;;;;;;;;5025112;28;20453;-64
2021/05/18 17:36:02;;;;;;;6.17;5.67;;;;;;;;;;5032182;28;20475;-66
2021/05/18 17:38:28;;;;;;;5.50;5.03;;;;;;;;;;5032344;28;20448;-65
2021/05/18 17:40:55;;;;;;;6.20;5.80;;;;;;;;;;5020789;28;20485;-66
2021/05/18 17:43:22;;;;;;;5.87;5.37;;;;;;;;;;5030062;28;21027;-65
2021/05/18 17:45:49;;;;;;;6.40;5.90;;;;;;;;;;5027590;28;20481;-65
2021/05/18 17:48:16;;;;;;;6.43;5.93;;;;;;;;;;5032853;28;20459;-65
2021/05/18 17:50:42;;;;;;;6.00;5.53;;;;;;;;;;5031685;28;20499;-65
2021/05/18 17:53:10;;;;;;;6.43;5.97;;;;;;;;;;5031414;28;20922;-65
2021/05/18 17:55:36;;;;;;;6.30;5.80;;;;;;;;;;5031378;28;20856;-66
2021/05/18 17:58:03;;;;;;;6.23;5.83;;;;;;;;;;5032191;28;20449;-65
2021/05/18 18:00:30;;;;;;;5.80;5.40;;;;;;;;;;5030627;28;20477;-67
2021/05/18 18:02:56;;;;;;;5.73;5.20;;;;;;;;;;5032866;28;20456;-65
2021/05/18 18:05:23;;;;;;;5.93;5.00;;;;;;;;;;5030634;28;20503;-66
2021/05/18 18:07:50;;;;;;;5.87;5.30;;;;;;;;;;5031584;28;20527;-65
2021/05/18 18:10:17;;;;;;;5.33;4.93;;;;;;;;;;5031846;28;20448;-68
2021/05/18 18:12:44;;;;;;;5.97;5.47;;;;;;;;;;5031524;28;20467;-65
2021/05/18 18:15:11;;;;;;;6.37;5.97;;;;;;;;;;5027771;28;20491;-67
2021/05/18 18:17:39;;;;;;;6.10;5.70;;;;;;;;;;5023220;28;20815;-65
2021/05/18 18:20:07;;;;;;;6.43;5.93;;;;;;;;;;5023747;28;20468;-65
2021/05/18 18:22:33;;;;;;;5.47;5.07;;;;;;;;;;5031617;28;20459;-65
2021/05/18 18:25:00;;;;;;;5.97;5.37;;;;;;;;;;5031600;28;20468;-65
2021/05/18 18:27:30;;;;;;;6.50;6.00;;;;;;;;;;5019410;28;20453;-67
2021/05/18 18:29:56;;;;;;;6.03;5.53;;;;;;;;;;5012882;28;20923;-65
2021/05/18 18:32:23;;;;;;;5.40;4.90;;;;;;;;;;5029991;28;20452;-65
2021/05/18 18:34:49;;;;;;;5.57;5.17;;;;;;;;;;5031738;28;20469;-65
2021/05/18 18:37:16;;;;;;;5.93;5.43;;;;;;;;;;5031255;28;20972;-65
2021/05/18 18:39:43;;;;;;;6.27;5.77;;;;;;;;;;5026180;28;20449;-68
2021/05/18 18:42:10;;;;;;;6.10;5.60;;;;;;;;;;5031095;28;20484;-65
2021/05/18 18:44:38;;;;;;;5.77;5.37;;;;;;;;;;5032754;28;20473;-65
2021/05/18 18:47:05;;;;;;;6.00;5.50;;;;;;;;;;5034045;28;20960;-65
2021/05/18 18:49:36;;;;;;;6.37;5.87;;;;;;;;;;5032771;28;20465;-67
2021/05/18 18:52:04;;;;;;;5.57;5.17;;;;;;;;;;5042604;28;20987;-65
2021/05/18 18:54:31;;;;;;;6.13;5.73;;;;;;;;;;5033672;28;20456;-65
2021/05/18 18:56:58;;;;;;;6.67;6.17;;;;;;;;;;5031086;28;20940;-65
2021/05/18 18:59:25;;;;;;;6.53;6.03;;;;;;;;;;5031252;28;20452;-64
2021/05/18 19:01:55;;;;;;;6.47;5.97;;;;;;;;;;5030959;28;20468;-66
2021/05/18 19:04:24;;;;;;;6.57;5.90;;;;;;;;;;5023173;28;20573;-65
2021/05/18 19:06:57;;;;;;;6.70;6.13;;;;;;;;;;5029594;28;20816;-65
2021/05/18 19:09:42;;;;;;;6.93;6.40;;;;;;;;;;5029357;28;20445;-65
2021/05/18 19:14:53;;;;;;;8.50;7.67;;;;;;;;;;5011607;28;20479;-65
2021/05/18 19:17:21;;;;;;;8.40;7.80;;;;;;;;;;5020471;28;20448;-66
2021/05/18 19:19:48;;;;;;;8.00;7.40;;;;;;;;;;5030845;28;20547;-65
2021/05/18 19:22:14;;;;;;;8.50;7.90;;;;;;;;;;5031002;28;20520;-66
2021/05/18 19:24:41;;;;;;;8.60;8.00;;;;;;;;;;5029337;28;20464;-65
2021/05/18 19:27:08;;;;;;;8.10;7.50;;;;;;;;;;5029874;28;20448;-64
2021/05/18 19:29:34;;;;;;;8.53;7.73;;;;;;;;;;5031095;28;20548;-66
2021/05/18 19:32:01;;;;;;;8.50;8.00;;;;;;;;;;5034142;28;20918;-64
2021/05/18 19:34:36;;;;;;;9.33;8.57;;;;;;;;;;5035129;28;20472;-65